Lakehurst NAES, Maxfield Field Lakehurst US
ICAO: KNEL
IATA: NEL
Category: Medium
Scheduled Services: No

Elevation: 101 ft
TransAlt. 18000 ft.

Airport Communications:
MC GUIRE APP/DEP:124.15
GND:118.375
MILLVILLE RDO:113.8
TWR:127.775

KNEL Zoom In..

If you have problems with the map follow the link
https://www.worldairports.se/pages/airport.php?
ICAO=KNEL

Runways:

(A) RW 06 length 5002 ft width 150 ft
---- / hdg 62

(B) RW 15 length 5001 ft width 150 ft
---- / hdg 152

(C) RW 24 length 5002 ft width 150 ft
---- / hdg 242

(D) RW 33 length 5001 ft width 150 ft
---- / hdg 332

Location; KNEL
Day. 16 / Time. 11.00 Zulu
* Altimeter: 29.41
* Temperature: 03° c. 37.4°f.
* Wind from: 300° Speed 23 kn with Gusts up to 34 kn.
Dewpoint: 03° c.
Visibility: 2 m.
Clouds: Overcast 1000 ft.
Conditions: Light Snow.Conditions: Mist.

KNEL 161100Z AUTO 30023G34KT 2 1/2SM -SN BR OVC010 03/03 A2941 RMK AO2 PK WND 28043/1021 RAE1045SNB1045 PRESRR SLP956 T00330033 PNO $


Wind From 300°
Speed 23 kn.

 
 
jpsmedia.com for Web Design worldairports.se 2018   terms of use